CW3467 Sant Marti de Canals ES current weather conditions

sailwx.info

Wind from 358

Air temperature 15.0° C
Dewpoint 14.2° C

Last reported at 2015-Sep-04 13:39 UTC.
Time now 2015-Sep-04 14:36 UTC

Location: N 42°14' E 000°59'.
View on Google Maps.

See reports from other nearby stations

  
Tides and Currents Weather Stations Pressure Air Temp Water Temp Dewpoint Dewpoint Depression Visibility Wind Speed Wind Dir Waves Ship Positions
date/time (UTC)wind fromknots sea level pressurealtimeterstation pressurevisibilityair tempwater tempwave heightnotes
2015-Sep-04 13:39 358 15.0
2015-Sep-04 13:09 098 14.4
2015-Sep-04 12:54 098 0 gusting 4 14.4
2015-Sep-04 12:39 219 14.4
2015-Sep-04 12:24 155 0 gusting 1 14.4
2015-Sep-04 12:09 225 14.4
2015-Sep-04 11:54 229 14.4
2015-Sep-04 11:39 218 14.4
2015-Sep-04 11:09 221 14.4
2015-Sep-04 10:54 135 14.4
2015-Sep-04 10:39 137 13.9
2015-Sep-04 10:24 219 13.9
2015-Sep-04 09:54 237 13.9
2015-Sep-04 09:39 226 13.9
2015-Sep-04 09:24 255 13.3
2015-Sep-04 08:39 054 0 gusting 4 13.3
2015-Sep-04 08:24 228 13.3
2015-Sep-04 07:54 046 12.8
2015-Sep-04 07:39 252 1 gusting 4 13.3
2015-Sep-04 07:24 302 13.3
2015-Sep-04 07:09 045 1 gusting 6 13.3
2015-Sep-04 06:54 068 2 gusting 5 13.3
2015-Sep-04 06:39 281 0 gusting 2 13.9
2015-Sep-04 06:24 340 0 gusting 1 14.4
2015-Sep-04 06:09 231 0 gusting 1 14.4
2015-Sep-04 05:39 167 15.0
2015-Sep-04 05:24 155 1 gusting 3 15.0
2015-Sep-04 05:09 114 0 gusting 1 15.0
2015-Sep-04 04:54 131 1 gusting 1 14.4
2015-Sep-04 04:24 003 0 gusting 1 15.0
2015-Sep-04 04:09 141 0 gusting 1 15.0
2015-Sep-04 03:54 217 15.0
2015-Sep-04 03:39 218 15.0
2015-Sep-04 03:24 113 0 gusting 6 15.0
2015-Sep-04 03:09 131 0 gusting 3 15.0
2015-Sep-04 02:53 132 15.0
2015-Sep-04 02:38 141 15.0
2015-Sep-04 02:23 151 0 gusting 3 15.0
2015-Sep-04 02:08 250 15.0
2015-Sep-04 01:53 159 15.6
2015-Sep-04 01:38 063 1 gusting 5 15.6
2015-Sep-04 01:23 137 15.0
2015-Sep-04 01:08 134 15.6
2015-Sep-04 00:53 136 15.6
2015-Sep-04 00:38 090 15.6
2015-Sep-04 00:23 079 15.6
2015-Sep-03 23:53 158 15.6
2015-Sep-03 23:23 153 1 gusting 3 15.6
2015-Sep-03 23:08 337 1 gusting 6 16.1
2015-Sep-03 22:53 160 2 gusting 4 16.1
2015-Sep-03 22:38 039 0 gusting 2 16.1
2015-Sep-03 22:23 137 16.1
2015-Sep-03 22:08 145 16.1
2015-Sep-03 21:53 102 16.1
2015-Sep-03 21:38 300 16.7
2015-Sep-03 21:23 070 1 gusting 4 16.7
2015-Sep-03 21:08 341 16.7
2015-Sep-03 20:53 300 0 gusting 6 16.7
2015-Sep-03 20:38 052 1 gusting 7 17.2
2015-Sep-03 20:08 053 2 gusting 8 17.2
2015-Sep-03 19:53 056 4 gusting 8 17.2
2015-Sep-03 19:38 068 5 gusting 10 17.8
2015-Sep-03 19:23 030 3 gusting 6 18.3
2015-Sep-03 19:08 056 3 gusting 11 18.9
2015-Sep-03 18:53 036 3 gusting 6 18.9
2015-Sep-03 18:38 013 1 gusting 3 19.4
2015-Sep-03 18:23 354 0 gusting 2 19.4
2015-Sep-03 18:08 121 3 gusting 6 19.4
2015-Sep-03 17:53 124 1 gusting 4 20.0
2015-Sep-03 17:38 111 1 gusting 5 20.0
2015-Sep-03 17:08 148 0 gusting 5 20.6
2015-Sep-03 16:53 146 1 gusting 6 20.6
2015-Sep-03 16:38 146 2 gusting 7 21.7
2015-Sep-03 15:53 214 4 gusting 8 21.7
2015-Sep-03 15:38 260 4 gusting 9 22.2
2015-Sep-03 15:23 253 4 gusting 10 22.8
2015-Sep-03 15:08 237 2 gusting 8 22.8
2015-Sep-03 14:53 214 5 gusting 10 22.2
2015-Sep-03 14:23 224 4 gusting 10 22.8
2015-Sep-03 14:08 243 3 gusting 10 23.3
2015-Sep-03 13:38 211 4 gusting 8 22.8
2015-Sep-03 13:08 238 0 gusting 6 22.2
2015-Sep-03 12:53 314 1 gusting 4 21.7
2015-Sep-03 12:38 239 2 gusting 6 21.1
2015-Sep-03 12:08 190 0 gusting 4 20.6
2015-Sep-03 11:52 240 1 gusting 4 19.4
2015-Sep-03 11:37 268 0 gusting 4 19.4
2015-Sep-03 11:22 222 0 gusting 4 18.9
2015-Sep-03 10:52 224 3 gusting 5 18.9
2015-Sep-03 10:39 203 1 gusting 4 18.9
2015-Sep-03 10:07 253 17.2
2015-Sep-03 09:52 218 17.2
2015-Sep-03 09:37 229 16.7
2015-Sep-03 09:22 212 16.1
2015-Sep-03 09:07 163 15.6
2015-Sep-03 08:52 228 15.0
2015-Sep-03 08:37 255 1 gusting 3 15.0
2015-Sep-03 08:22 110 15.0
2015-Sep-03 08:07 143 0 gusting 3 14.4
2015-Sep-03 07:22 255 15.0
2015-Sep-03 07:07 352 15.0
2015-Sep-03 06:37 221 0 gusting 1 15.0
2015-Sep-03 06:22 103 15.0
2015-Sep-03 06:07 041 15.0
2015-Sep-03 05:22 314 0 gusting 2 15.0
2015-Sep-03 04:37 104 0 gusting 2 14.4
2015-Sep-03 04:22 110 15.0
2015-Sep-03 04:07 226 15.0
2015-Sep-03 03:37 041 15.0
2015-Sep-03 03:23 113 15.0
2015-Sep-03 03:07 138 15.0
2015-Sep-03 02:52 134 15.0
2015-Sep-03 02:37 160 1 gusting 4 15.0
2015-Sep-03 02:07 109 4 gusting 5 15.0
2015-Sep-03 01:52 159 1 gusting 3 15.0
2015-Sep-03 01:37 253 15.6
2015-Sep-03 01:22 090 4 gusting 11 16.1
2015-Sep-03 01:07 068 2 gusting 9 15.6
2015-Sep-03 00:52 250 3 gusting 6 15.6
2015-Sep-03 00:36 349 3 gusting 7 15.6
2015-Sep-02 23:57 228 0 gusting 3 16.7
2015-Sep-02 22:51 020 18.9
2015-Sep-02 22:36 337 0 gusting 1 18.9
2015-Sep-02 22:06 111 18.9
2015-Sep-02 21:51 167 0 gusting 2 19.4
2015-Sep-02 21:36 358 19.4
2015-Sep-02 20:51 077 19.4
2015-Sep-02 20:21 296 19.4
2015-Sep-02 20:06 297 19.4
2015-Sep-02 19:51 101 20.0
2015-Sep-02 19:21 104 1 gusting 3 20.6
2015-Sep-02 19:06 123 1 gusting 2 21.1
2015-Sep-02 18:51 264 21.1
2015-Sep-02 18:21 233 21.7
2015-Sep-02 18:06 204 1 gusting 6 21.7
2015-Sep-02 17:36 129 1 gusting 5 22.2
2015-Sep-02 17:06 138 6 gusting 11 23.3
2015-Sep-02 16:51 131 6 gusting 13 23.9
2015-Sep-02 16:06 193 1 gusting 3 23.9
2015-Sep-02 15:52 215 0 gusting 5 24.4
2015-Sep-02 15:21 255 1 gusting 4 24.4
2015-Sep-02 15:06 233 1 gusting 8 24.4
2015-Sep-02 14:51 225 1 gusting 6 23.9
2015-Sep-02 14:36 150 4 gusting 7 24.4
2015-Sep-02 14:06 205 4 gusting 8 22.8